Flight Track Log - Related Links

Times and Time Zones

All times are in EDT time to prevent confusion due to time zone crossing. See the ASQ4406 flight status page for this flight to view local times or setup timezone preferences in your user account.

Time Position Orientation Groundspeed Altitude Reporting Facility
EDT Latitude Longitude Course Direction KTS MPH feet Rate Location/Type
Sat 05:21:57 PM 46.7500 -71.4167 184° South 160 184 2,600  Level Montreal Center
Sat 05:22:57 PM 46.7000 -71.4333 193° South 210 242 4,800 2,100 Climbing Montreal Center
Sat 05:23:57 PM 46.6333 -71.4500 190° South 250 288 6,800 2,150 Climbing Montreal Center
Sat 05:24:00 PM 46.5240 -71.4167 180° South  Level FlightAware Approximate
Sat 05:24:57 PM 46.5500 -71.4333 172° South 280 322 9,100  Level Montreal Center
Sat 05:25:00 PM 46.4371 -71.4167 180° South  Level FlightAware Approximate
Sat 05:25:57 PM 46.4667 -71.4333 180° South 310 357 10,600  Level Montreal Center
Sat 05:26:00 PM 46.3489 -71.4351 184° South  Level FlightAware Approximate
Sat 05:26:57 PM 46.3833 -71.4500 188° South 330 380 12,200  Level Montreal Center
Sat 05:27:00 PM 46.2602 -71.4440 184° South  Level FlightAware Approximate
Sat 05:27:57 PM 46.3000 -71.4833 195° South 320 368 14,300  Level Montreal Center
Sat 05:28:57 PM 46.2167 -71.5333 203° Southwest 320 368 15,800 1,550 Climbing Montreal Center
Sat 05:29:57 PM 46.1333 -71.5833 203° Southwest 330 380 17,400 1,400 Climbing Montreal Center
Sat 05:30:57 PM 46.0500 -71.6333 203° Southwest 340 391 18,600 1,400 Climbing Montreal Center
Sat 05:31:57 PM 45.9667 -71.7167 215° Southwest 340 391 20,200 1,500 Climbing Montreal Center
Sat 05:32:57 PM 45.8833 -71.7833 209° Southwest 350 403 21,600 1,500 Climbing Montreal Center
Sat 05:33:57 PM 45.7833 -71.8333 199° South 350 403 23,200 1,300 Climbing Montreal Center
Sat 05:34:57 PM 45.7000 -71.9167 215° Southwest 360 414 24,200 1,000 Climbing Montreal Center
Sat 05:35:57 PM 45.6000 -71.9667 199° South 370 426 25,200 1,000 Climbing Montreal Center
Sat 05:36:57 PM 45.5000 -72.0500 210° Southwest 380 437 26,200 1,000 Climbing Montreal Center
Sat 05:37:57 PM 45.4167 -72.1000 203° Southwest 390 449 27,200 1,100 Climbing Montreal Center
Sat 05:38:57 PM 45.3000 -72.1833 207° Southwest 390 449 28,400 1,200 Climbing Montreal Center
Sat 05:39:57 PM 45.2333 -72.2333 208° Southwest 390 449 29,600 1,190 Climbing Montreal Center
Sat 05:41:03 PM 45.1217 -72.3314 212° Southwest 392 451 30,900 1,143 Climbing Boston Center
Sat 05:42:03 PM 45.0239 -72.3989 206° Southwest 392 451 32,000 550 Climbing Boston Center
Sat 05:43:03 PM 44.9217 -72.4664 205° Southwest 397 457 32,000  Level Boston Center
Sat 05:44:03 PM 44.8175 -72.5367 206° Southwest 407 468 32,000  Level Boston Center
Sat 05:45:03 PM 44.7342 -72.5919 205° Southwest 407 468 32,000  Level Boston Center
Sat 05:46:03 PM 44.6403 -72.6558 206° Southwest 412 474 32,000  Level Boston Center
Sat 05:47:03 PM 44.5025 -72.7486 206° Southwest 417 480 32,000  Level Boston Center
Sat 05:48:03 PM 44.3961 -72.8206 206° Southwest 422 486 32,000  Level Boston Center
Sat 05:49:03 PM 44.2917 -72.8897 205° Southwest 422 486 32,000  Level Boston Center
Sat 05:50:03 PM 44.1892 -72.9611 207° Southwest 422 486 32,000  Level Boston Center
Sat 05:51:03 PM 44.0847 -73.0297 205° Southwest 417 480 32,000  Level Boston Center
Sat 05:52:15 PM 43.9678 -73.1094 206° Southwest 400 460 32,000  Level Boston Center
Sat 05:53:15 PM 43.8694 -73.1744 205° Southwest 400 460 32,000  Level Boston Center
Sat 05:54:15 PM 43.7731 -73.2394 206° Southwest 395 455 32,000  Level Boston Center
Sat 05:55:15 PM 43.6850 -73.2986 206° Southwest 395 455 32,000 -200 Level Boston Center
Sat 05:56:15 PM 43.5803 -73.3631 204° Southwest 390 449 31,600 -1,150 Descending Boston Center
Sat 05:57:15 PM 43.4797 -73.4272 205° Southwest 390 449 29,700 -2,000 Descending Boston Center
Sat 05:58:15 PM 43.3833 -73.4856 204° Southwest 390 449 27,600 -2,150 Descending Boston Center
Sat 05:59:15 PM 43.2933 -73.5469 206° Southwest 379 436 25,400 -1,636 Descending Boston Center
Sat 06:00:27 PM 43.1989 -73.6050 204° Southwest 379 436 24,000 -1,455 Descending Boston Center
Sat 06:01:27 PM 43.0836 -73.6597 199° South 374 430 22,200 -1,600 Descending Boston Center
Sat 06:02:27 PM 42.9853 -73.7031 198° South 374 430 20,800 -1,450 Descending Boston Center
Sat 06:03:27 PM 42.8847 -73.7464 198° South 374 430 19,300 -1,350 Descending Boston Center
Sat 06:04:27 PM 42.8031 -73.7842 199° South 366 421 18,100 -1,150 Descending Boston Center
Sat 06:05:27 PM 42.7089 -73.8244 197° South 366 421 17,000 -1,050 Descending Boston Center
Sat 06:06:27 PM 42.6208 -73.8650 199° South 360 414 16,000 -500 Descending Boston Center
Sat 06:07:27 PM 42.5264 -73.9022 196° South 337 388 16,000 -650 Level Boston Center
Sat 06:08:27 PM 42.4383 -73.9425 199° South 337 388 14,700 -1,000 Descending Boston Center
Sat 06:09:27 PM 42.3567 -73.9769 197° South 325 374 14,000 -350 Descending Boston Center
Sat 06:10:27 PM 42.2728 -74.0142 198° South 318 366 14,000  Level Boston Center
Sat 06:11:39 PM 42.1889 -74.0514 198° South 318 366 14,000 -136 Level Boston Center
Sat 06:12:39 PM 42.0881 -74.0961 198° South 318 366 13,700 -650 Descending Boston Center
Sat 06:13:39 PM 42.0064 -74.1333 199° South 318 366 12,700 -1,000 Descending Boston Center
Sat 06:14:39 PM 41.9328 -74.1675 199° South 313 360 11,700 -1,000 Descending Boston Center
Sat 06:15:39 PM 41.8447 -74.2042 197° South 306 352 10,700 -1,150 Descending Boston Center
Sat 06:16:39 PM 41.7797 -74.2331 198° South 288 331 9,400 -1,350 Descending Boston Center
Sat 06:17:39 PM 41.7042 -74.2669 199° South 275 316 8,000 -700 Descending Boston Center
Sat 06:18:39 PM 41.6475 -74.2903 197° South 252 290 8,000  Level Boston Center
Sat 06:19:39 PM 41.5739 -74.3242 199° South 247 284 8,000 -200 Level Boston Center
Sat 06:20:39 PM 41.5153 -74.3503 198° South 247 284 7,600 -324 Descending Boston Center
Sat 06:22:44 PM 41.3833 -74.4000 196° South 244 281 7,000 -195 Descending New York TRACON
Sat 06:23:44 PM 41.3167 -74.4333 201° Southwest 254 292 7,000  Level New York TRACON
Sat 06:24:44 PM 41.2333 -74.4667 197° South 255 293 7,000  Level New York TRACON
Sat 06:25:44 PM 41.1667 -74.4667 180° South 254 292 7,000 -100 Level New York TRACON
Sat 06:26:44 PM 41.1000 -74.4667 180° South 246 283 6,800 -550 Descending New York TRACON
Sat 06:27:44 PM 41.0667 -74.4000 124° Southeast 272 313 5,900 -900 Descending New York TRACON
Sat 06:28:44 PM 41.0500 -74.3000 102° East 260 299 5,000 -500 Descending New York TRACON
Sat 06:29:44 PM 41.0167 -74.2333 124° Southeast 229 264 4,900 -500 Descending New York TRACON
Sat 06:30:44 PM 40.9833 -74.1667 124° Southeast 222 255 4,000 -450 Descending New York TRACON
Sat 06:31:44 PM 40.9333 -74.1167 143° Southeast 199 229 4,000 -450 Level New York TRACON
Sat 06:32:44 PM 40.8833 -74.1000 166° South 192 221 3,100 -900 Descending New York TRACON

Login

Don't have an account? Register now (free) for customized features, flight alerts, and more!